sensor_id;sensor_type;location;lat;lon;timestamp;temperature;humidity
65536;DHT22;52145;49.342;9.116;2022-09-01T00:01:43;16.90;95.90
65536;DHT22;52145;49.342;9.116;2022-09-01T00:04:11;16.90;95.90
65536;DHT22;52145;49.342;9.116;2022-09-01T00:06:38;16.90;96.10
65536;DHT22;52145;49.342;9.116;2022-09-01T00:09:11;16.90;96.10
65536;DHT22;52145;49.342;9.116;2022-09-01T00:11:38;16.80;96.30
65536;DHT22;52145;49.342;9.116;2022-09-01T00:14:06;16.80;96.10
65536;DHT22;52145;49.342;9.116;2022-09-01T00:16:32;16.80;96.20
65536;DHT22;52145;49.342;9.116;2022-09-01T00:18:58;16.80;96.40
65536;DHT22;52145;49.342;9.116;2022-09-01T00:21:28;16.80;96.30
65536;DHT22;52145;49.342;9.116;2022-09-01T00:23:54;16.70;96.60
65536;DHT22;52145;49.342;9.116;2022-09-01T00:26:19;16.60;96.80
65536;DHT22;52145;49.342;9.116;2022-09-01T00:28:45;16.60;96.80
65536;DHT22;52145;49.342;9.116;2022-09-01T00:31:11;16.70;97.00
65536;DHT22;52145;49.342;9.116;2022-09-01T00:33:39;16.60;97.10
65536;DHT22;52145;49.342;9.116;2022-09-01T00:36:05;16.50;97.40
65536;DHT22;52145;49.342;9.116;2022-09-01T00:38:31;16.50;97.40
65536;DHT22;52145;49.342;9.116;2022-09-01T00:40:57;16.60;97.10
65536;DHT22;52145;49.342;9.116;2022-09-01T00:46:03;16.40;97.30
65536;DHT22;52145;49.342;9.116;2022-09-01T00:48:28;16.40;97.40
65536;DHT22;52145;49.342;9.116;2022-09-01T00:50:54;16.40;97.60
65536;DHT22;52145;49.342;9.116;2022-09-01T00:53:20;16.50;97.60
65536;DHT22;52145;49.342;9.116;2022-09-01T00:55:46;16.60;97.40
65536;DHT22;52145;49.342;9.116;2022-09-01T00:58:11;16.60;97.50
65536;DHT22;52145;49.342;9.116;2022-09-01T01:00:38;16.50;97.50
65536;DHT22;52145;49.342;9.116;2022-09-01T01:03:07;16.60;97.50
65536;DHT22;52145;49.342;9.116;2022-09-01T01:05:36;16.60;97.50
65536;DHT22;52145;49.342;9.116;2022-09-01T01:08:04;16.70;97.60
65536;DHT22;52145;49.342;9.116;2022-09-01T01:10:35;16.60;97.70
65536;DHT22;52145;49.342;9.116;2022-09-01T01:13:05;16.50;97.70
65536;DHT22;52145;49.342;9.116;2022-09-01T01:15:30;16.40;98.10
65536;DHT22;52145;49.342;9.116;2022-09-01T01:17:56;16.40;98.30
65536;DHT22;52145;49.342;9.116;2022-09-01T01:20:27;16.30;98.10
65536;DHT22;52145;49.342;9.116;2022-09-01T01:23:38;16.40;98.40
65536;DHT22;52145;49.342;9.116;2022-09-01T01:26:06;16.30;98.40
65536;DHT22;52145;49.342;9.116;2022-09-01T01:28:36;16.30;98.50
65536;DHT22;52145;49.342;9.116;2022-09-01T01:31:12;16.30;98.50
65536;DHT22;52145;49.342;9.116;2022-09-01T01:33:39;16.20;98.70
65536;DHT22;52145;49.342;9.116;2022-09-01T01:36:07;16.20;98.60
65536;DHT22;52145;49.342;9.116;2022-09-01T01:38:41;16.20;98.70
65536;DHT22;52145;49.342;9.116;2022-09-01T01:41:08;16.10;98.90
65536;DHT22;52145;49.342;9.116;2022-09-01T01:43:34;16.20;98.80
65536;DHT22;52145;49.342;9.116;2022-09-01T01:46:00;16.20;98.70
65536;DHT22;52145;49.342;9.116;2022-09-01T01:48:28;16.30;98.80
65536;DHT22;52145;49.342;9.116;2022-09-01T01:50:55;16.30;98.90
65536;DHT22;52145;49.342;9.116;2022-09-01T01:53:25;16.20;98.90
65536;DHT22;52145;49.342;9.116;2022-09-01T01:55:51;16.30;98.90
65536;DHT22;52145;49.342;9.116;2022-09-01T01:58:18;16.40;98.80
65536;DHT22;52145;49.342;9.116;2022-09-01T02:00:45;16.20;99.10
65536;DHT22;52145;49.342;9.116;2022-09-01T02:03:16;16.20;99.10
65536;DHT22;52145;49.342;9.116;2022-09-01T02:05:44;16.10;99.30
65536;DHT22;52145;49.342;9.116;2022-09-01T02:08:10;16.00;99.50
65536;DHT22;52145;49.342;9.116;2022-09-01T02:10:42;16.00;99.70
65536;DHT22;52145;49.342;9.116;2022-09-01T02:13:09;15.90;99.60
65536;DHT22;52145;49.342;9.116;2022-09-01T02:15:46;15.90;99.80
65536;DHT22;52145;49.342;9.116;2022-09-01T02:18:15;15.90;99.80
65536;DHT22;52145;49.342;9.116;2022-09-01T02:20:43;15.90;99.80
65536;DHT22;52145;49.342;9.116;2022-09-01T02:23:09;15.80;99.90
65536;DHT22;52145;49.342;9.116;2022-09-01T02:25:44;15.90;99.90
65536;DHT22;52145;49.342;9.116;2022-09-01T02:28:14;15.90;99.90
65536;DHT22;52145;49.342;9.116;2022-09-01T02:30:44;15.80;99.90
65536;DHT22;52145;49.342;9.116;2022-09-01T02:33:12;15.80;99.90
65536;DHT22;52145;49.342;9.116;2022-09-01T02:35:43;15.80;99.90
65536;DHT22;52145;49.342;9.116;2022-09-01T02:38:09;15.80;99.90
65536;DHT22;52145;49.342;9.116;2022-09-01T02:40:38;15.90;99.90
65536;DHT22;52145;49.342;9.116;2022-09-01T02:43:05;15.90;99.90
65536;DHT22;52145;49.342;9.116;2022-09-01T02:45:30;15.80;99.90
65536;DHT22;52145;49.342;9.116;2022-09-01T02:47:56;15.90;99.90
65536;DHT22;52145;49.342;9.116;2022-09-01T02:50:23;15.80;99.90
65536;DHT22;52145;49.342;9.116;2022-09-01T02:52:50;15.80;99.90
65536;DHT22;52145;49.342;9.116;2022-09-01T02:55:17;15.80;99.90
65536;DHT22;52145;49.342;9.116;2022-09-01T02:57:48;15.70;99.90
65536;DHT22;52145;49.342;9.116;2022-09-01T03:00:14;15.80;99.90
65536;DHT22;52145;49.342;9.116;2022-09-01T03:02:54;15.80;99.90
65536;DHT22;52145;49.342;9.116;2022-09-01T03:05:22;15.80;99.90
65536;DHT22;52145;49.342;9.116;2022-09-01T03:08:00;15.70;99.90
65536;DHT22;52145;49.342;9.116;2022-09-01T03:10:29;15.70;99.90
65536;DHT22;52145;49.342;9.116;2022-09-01T03:12:58;15.80;99.90
65536;DHT22;52145;49.342;9.116;2022-09-01T03:15:24;15.80;99.90
65536;DHT22;52145;49.342;9.116;2022-09-01T03:17:51;15.80;99.90
65536;DHT22;52145;49.342;9.116;2022-09-01T03:20:18;15.80;99.90
65536;DHT22;52145;49.342;9.116;2022-09-01T03:22:45;15.80;99.90
65536;DHT22;52145;49.342;9.116;2022-09-01T03:25:12;15.80;99.90
65536;DHT22;52145;49.342;9.116;2022-09-01T03:27:37;15.70;99.90
65536;DHT22;52145;49.342;9.116;2022-09-01T03:30:04;15.60;99.90
65536;DHT22;52145;49.342;9.116;2022-09-01T03:32:29;15.60;99.90
65536;DHT22;52145;49.342;9.116;2022-09-01T03:34:55;15.70;99.90
65536;DHT22;52145;49.342;9.116;2022-09-01T03:37:21;15.60;99.90
65536;DHT22;52145;49.342;9.116;2022-09-01T03:39:47;15.50;99.90
65536;DHT22;52145;49.342;9.116;2022-09-01T03:42:13;15.30;99.90
65536;DHT22;52145;49.342;9.116;2022-09-01T03:44:50;15.20;99.90
65536;DHT22;52145;49.342;9.116;2022-09-01T03:47:17;15.20;99.90
65536;DHT22;52145;49.342;9.116;2022-09-01T03:49:46;15.10;99.90
65536;DHT22;52145;49.342;9.116;2022-09-01T03:52:13;15.20;99.90
65536;DHT22;52145;49.342;9.116;2022-09-01T03:54:42;15.10;99.90
65536;DHT22;52145;49.342;9.116;2022-09-01T03:57:10;15.20;99.90
65536;DHT22;52145;49.342;9.116;2022-09-01T03:59:36;15.50;99.90
65536;DHT22;52145;49.342;9.116;2022-09-01T04:02:07;15.50;99.90
65536;DHT22;52145;49.342;9.116;2022-09-01T04:04:33;15.50;99.90
65536;DHT22;52145;49.342;9.116;2022-09-01T04:06:58;15.50;99.90
65536;DHT22;52145;49.342;9.116;2022-09-01T04:09:25;15.40;99.90
65536;DHT22;52145;49.342;9.116;2022-09-01T04:11:51;15.50;99.90
65536;DHT22;52145;49.342;9.116;2022-09-01T04:14:17;15.50;99.90
65536;DHT22;52145;49.342;9.116;2022-09-01T04:16:43;15.50;99.90
65536;DHT22;52145;49.342;9.116;2022-09-01T04:19:28;15.40;99.90
65536;DHT22;52145;49.342;9.116;2022-09-01T04:21:59;15.40;99.90
65536;DHT22;52145;49.342;9.116;2022-09-01T04:24:26;15.40;99.90
65536;DHT22;52145;49.342;9.116;2022-09-01T04:26:54;15.20;99.90
65536;DHT22;52145;49.342;9.116;2022-09-01T04:29:21;15.30;99.90
65536;DHT22;52145;49.342;9.116;2022-09-01T04:32:02;15.20;99.90
65536;DHT22;52145;49.342;9.116;2022-09-01T04:34:31;15.20;99.90
65536;DHT22;52145;49.342;9.116;2022-09-01T04:37:11;15.10;99.90
65536;DHT22;52145;49.342;9.116;2022-09-01T04:39:37;15.10;99.90
65536;DHT22;52145;49.342;9.116;2022-09-01T04:42:03;15.00;99.90
65536;DHT22;52145;49.342;9.116;2022-09-01T04:44:30;14.90;99.90
65536;DHT22;52145;49.342;9.116;2022-09-01T04:46:56;15.00;99.90
65536;DHT22;52145;49.342;9.116;2022-09-01T04:49:22;14.90;99.90
65536;DHT22;52145;49.342;9.116;2022-09-01T04:51:50;14.90;99.90
65536;DHT22;52145;49.342;9.116;2022-09-01T04:54:16;14.90;99.90
65536;DHT22;52145;49.342;9.116;2022-09-01T04:56:45;14.90;99.90
65536;DHT22;52145;49.342;9.116;2022-09-01T04:59:12;14.90;99.90
65536;DHT22;52145;49.342;9.116;2022-09-01T05:01:39;14.80;99.90
65536;DHT22;52145;49.342;9.116;2022-09-01T05:04:14;14.90;99.90
65536;DHT22;52145;49.342;9.116;2022-09-01T05:06:44;14.90;99.90
65536;DHT22;52145;49.342;9.116;2022-09-01T05:09:10;14.80;99.90
65536;DHT22;52145;49.342;9.116;2022-09-01T05:11:38;15.00;99.90
65536;DHT22;52145;49.342;9.116;2022-09-01T05:14:04;15.10;99.90
65536;DHT22;52145;49.342;9.116;2022-09-01T05:16:32;15.20;99.90
65536;DHT22;52145;49.342;9.116;2022-09-01T05:18:58;15.40;99.90
65536;DHT22;52145;49.342;9.116;2022-09-01T05:21:26;15.60;99.90
65536;DHT22;52145;49.342;9.116;2022-09-01T05:23:55;15.70;99.90
65536;DHT22;52145;49.342;9.116;2022-09-01T05:26:25;15.80;99.90
65536;DHT22;52145;49.342;9.116;2022-09-01T05:28:57;16.00;99.90
65536;DHT22;52145;49.342;9.116;2022-09-01T05:31:24;16.00;99.90
65536;DHT22;52145;49.342;9.116;2022-09-01T05:33:50;16.20;99.90
65536;DHT22;52145;49.342;9.116;2022-09-01T05:36:18;16.20;99.90
65536;DHT22;52145;49.342;9.116;2022-09-01T05:38:44;16.00;99.90
65536;DHT22;52145;49.342;9.116;2022-09-01T05:41:12;15.90;99.90
65536;DHT22;52145;49.342;9.116;2022-09-01T05:43:40;15.80;99.90
65536;DHT22;52145;49.342;9.116;2022-09-01T05:46:12;15.90;99.90
65536;DHT22;52145;49.342;9.116;2022-09-01T05:48:40;16.00;99.90
65536;DHT22;52145;49.342;9.116;2022-09-01T05:51:08;16.00;99.90
65536;DHT22;52145;49.342;9.116;2022-09-01T05:53:33;16.20;99.90
65536;DHT22;52145;49.342;9.116;2022-09-01T05:56:00;16.30;99.90
65536;DHT22;52145;49.342;9.116;2022-09-01T05:58:31;16.30;99.90
65536;DHT22;52145;49.342;9.116;2022-09-01T06:00:59;16.40;99.90
65536;DHT22;52145;49.342;9.116;2022-09-01T06:03:25;16.60;99.90
65536;DHT22;52145;49.342;9.116;2022-09-01T06:06:00;16.70;99.90
65536;DHT22;52145;49.342;9.116;2022-09-01T06:08:25;16.70;99.90
65536;DHT22;52145;49.342;9.116;2022-09-01T06:10:53;16.60;99.90
65536;DHT22;52145;49.342;9.116;2022-09-01T06:13:19;16.60;99.90
65536;DHT22;52145;49.342;9.116;2022-09-01T06:15:47;16.50;99.90
65536;DHT22;52145;49.342;9.116;2022-09-01T06:18:13;16.70;99.90
65536;DHT22;52145;49.342;9.116;2022-09-01T06:20:44;16.70;99.90
65536;DHT22;52145;49.342;9.116;2022-09-01T06:23:11;16.90;99.90
65536;DHT22;52145;49.342;9.116;2022-09-01T06:25:39;17.10;99.90
65536;DHT22;52145;49.342;9.116;2022-09-01T06:28:11;17.00;99.90
65536;DHT22;52145;49.342;9.116;2022-09-01T06:30:37;17.00;99.90
65536;DHT22;52145;49.342;9.116;2022-09-01T06:33:04;17.10;99.90
65536;DHT22;52145;49.342;9.116;2022-09-01T06:35:34;17.20;99.90
65536;DHT22;52145;49.342;9.116;2022-09-01T06:38:00;17.20;99.90
65536;DHT22;52145;49.342;9.116;2022-09-01T06:40:27;17.20;99.90
65536;DHT22;52145;49.342;9.116;2022-09-01T06:42:52;17.50;99.90
65536;DHT22;52145;49.342;9.116;2022-09-01T06:45:22;17.60;99.90
65536;DHT22;52145;49.342;9.116;2022-09-01T06:47:48;17.60;99.90
65536;DHT22;52145;49.342;9.116;2022-09-01T06:50:17;17.80;99.90
65536;DHT22;52145;49.342;9.116;2022-09-01T06:52:44;18.00;99.90
65536;DHT22;52145;49.342;9.116;2022-09-01T06:55:11;18.00;99.90
65536;DHT22;52145;49.342;9.116;2022-09-01T06:57:41;18.30;99.90
65536;DHT22;52145;49.342;9.116;2022-09-01T07:00:13;18.10;99.90
65536;DHT22;52145;49.342;9.116;2022-09-01T07:02:46;18.20;99.70
65536;DHT22;52145;49.342;9.116;2022-09-01T07:05:14;17.90;99.90
65536;DHT22;52145;49.342;9.116;2022-09-01T07:07:50;17.80;99.90
65536;DHT22;52145;49.342;9.116;2022-09-01T07:10:17;18.00;99.90
65536;DHT22;52145;49.342;9.116;2022-09-01T07:12:51;18.30;99.90
65536;DHT22;52145;49.342;9.116;2022-09-01T07:15:17;18.40;99.50
65536;DHT22;52145;49.342;9.116;2022-09-01T07:17:49;18.50;99.60
65536;DHT22;52145;49.342;9.116;2022-09-01T07:20:15;18.40;99.70
65536;DHT22;52145;49.342;9.116;2022-09-01T07:22:41;18.40;99.70
65536;DHT22;52145;49.342;9.116;2022-09-01T07:25:08;18.70;99.30
65536;DHT22;52145;49.342;9.116;2022-09-01T07:27:37;18.80;99.20
65536;DHT22;52145;49.342;9.116;2022-09-01T07:30:04;18.50;99.40
65536;DHT22;52145;49.342;9.116;2022-09-01T07:32:31;18.70;99.30
65536;DHT22;52145;49.342;9.116;2022-09-01T07:34:58;19.00;99.10
65536;DHT22;52145;49.342;9.116;2022-09-01T07:37:24;19.30;98.60
65536;DHT22;52145;49.342;9.116;2022-09-01T07:39:52;18.90;98.90
65536;DHT22;52145;49.342;9.116;2022-09-01T07:42:19;19.30;98.50
65536;DHT22;52145;49.342;9.116;2022-09-01T07:44:45;19.50;98.30
65536;DHT22;52145;49.342;9.116;2022-09-01T07:47:11;19.80;97.90
65536;DHT22;52145;49.342;9.116;2022-09-01T07:49:39;19.80;98.00
65536;DHT22;52145;49.342;9.116;2022-09-01T07:52:05;19.70;97.90
65536;DHT22;52145;49.342;9.116;2022-09-01T07:54:31;19.90;97.70
65536;DHT22;52145;49.342;9.116;2022-09-01T07:57:01;20.00;97.80
65536;DHT22;52145;49.342;9.116;2022-09-01T07:59:27;19.90;97.80
65536;DHT22;52145;49.342;9.116;2022-09-01T08:01:54;19.50;98.00
65536;DHT22;52145;49.342;9.116;2022-09-01T08:04:21;20.10;97.70
65536;DHT22;52145;49.342;9.116;2022-09-01T08:06:48;19.90;97.30
65536;DHT22;52145;49.342;9.116;2022-09-01T08:09:13;19.50;97.80
65536;DHT22;52145;49.342;9.116;2022-09-01T08:11:39;20.20;97.50
65536;DHT22;52145;49.342;9.116;2022-09-01T08:14:05;20.40;97.00
65536;DHT22;52145;49.342;9.116;2022-09-01T08:16:31;20.50;96.50
65536;DHT22;52145;49.342;9.116;2022-09-01T08:18:57;20.60;96.20
65536;DHT22;52145;49.342;9.116;2022-09-01T08:21:24;20.10;96.70
65536;DHT22;52145;49.342;9.116;2022-09-01T08:23:52;20.20;96.90
65536;DHT22;52145;49.342;9.116;2022-09-01T08:26:20;20.30;97.00
65536;DHT22;52145;49.342;9.116;2022-09-01T08:28:46;20.80;96.30
65536;DHT22;52145;49.342;9.116;2022-09-01T08:31:14;20.90;96.40
65536;DHT22;52145;49.342;9.116;2022-09-01T08:33:42;20.90;96.00
65536;DHT22;52145;49.342;9.116;2022-09-01T08:36:10;20.40;96.30
65536;DHT22;52145;49.342;9.116;2022-09-01T08:38:36;20.80;96.10
65536;DHT22;52145;49.342;9.116;2022-09-01T08:41:03;20.70;95.90
65536;DHT22;52145;49.342;9.116;2022-09-01T08:46:23;21.30;95.40
65536;DHT22;52145;49.342;9.116;2022-09-01T08:49:03;21.10;95.10
65536;DHT22;52145;49.342;9.116;2022-09-01T08:51:47;21.20;95.10
65536;DHT22;52145;49.342;9.116;2022-09-01T08:56:47;21.70;94.30
65536;DHT22;52145;49.342;9.116;2022-09-01T08:59:16;21.70;94.20
65536;DHT22;52145;49.342;9.116;2022-09-01T09:09:34;21.70;94.00
65536;DHT22;52145;49.342;9.116;2022-09-01T09:12:21;21.50;93.80
65536;DHT22;52145;49.342;9.116;2022-09-01T09:15:00;21.40;94.10
65536;DHT22;52145;49.342;9.116;2022-09-01T09:17:59;21.50;94.10
65536;DHT22;52145;49.342;9.116;2022-09-01T09:20:25;21.30;94.60
65536;DHT22;52145;49.342;9.116;2022-09-01T09:22:52;21.30;94.30
65536;DHT22;52145;49.342;9.116;2022-09-01T09:25:18;21.40;94.00
65536;DHT22;52145;49.342;9.116;2022-09-01T09:27:48;21.50;94.40
65536;DHT22;52145;49.342;9.116;2022-09-01T09:30:23;22.00;94.10
65536;DHT22;52145;49.342;9.116;2022-09-01T09:33:04;22.10;93.50
65536;DHT22;52145;49.342;9.116;2022-09-01T09:41:03;22.40;93.10
65536;DHT22;52145;49.342;9.116;2022-09-01T09:43:32;22.00;93.30
65536;DHT22;52145;49.342;9.116;2022-09-01T09:46:38;21.60;93.80
65536;DHT22;52145;49.342;9.116;2022-09-01T09:49:26;21.50;93.30
65536;DHT22;52145;49.342;9.116;2022-09-01T09:52:16;21.30;93.70
65536;DHT22;52145;49.342;9.116;2022-09-01T09:55:03;21.60;93.60
65536;DHT22;52145;49.342;9.116;2022-09-01T09:57:30;22.00;93.40
65536;DHT22;52145;49.342;9.116;2022-09-01T10:00:09;21.80;93.20
65536;DHT22;52145;49.342;9.116;2022-09-01T10:02:42;22.00;92.70
65536;DHT22;52145;49.342;9.116;2022-09-01T10:05:42;22.40;92.40
65536;DHT22;52145;49.342;9.116;2022-09-01T10:08:36;23.20;92.00
65536;DHT22;52145;49.342;9.116;2022-09-01T10:11:03;22.70;91.80
65536;DHT22;52145;49.342;9.116;2022-09-01T10:13:29;22.50;92.00
65536;DHT22;52145;49.342;9.116;2022-09-01T10:15:59;22.20;92.30
65536;DHT22;52145;49.342;9.116;2022-09-01T10:18:30;22.00;92.70
65536;DHT22;52145;49.342;9.116;2022-09-01T10:21:02;21.90;93.00
65536;DHT22;52145;49.342;9.116;2022-09-01T10:23:29;22.20;92.60
65536;DHT22;52145;49.342;9.116;2022-09-01T10:26:06;22.70;92.20
65536;DHT22;52145;49.342;9.116;2022-09-01T10:28:39;23.00;91.90
65536;DHT22;52145;49.342;9.116;2022-09-01T10:31:05;23.30;91.50
65536;DHT22;52145;49.342;9.116;2022-09-01T10:33:33;23.30;91.50
65536;DHT22;52145;49.342;9.116;2022-09-01T10:35:58;22.80;92.00
65536;DHT22;52145;49.342;9.116;2022-09-01T10:38:26;22.60;92.30
65536;DHT22;52145;49.342;9.116;2022-09-01T10:40:54;22.50;92.20
65536;DHT22;52145;49.342;9.116;2022-09-01T10:43:44;22.50;92.30
65536;DHT22;52145;49.342;9.116;2022-09-01T10:46:40;22.40;92.50
65536;DHT22;52145;49.342;9.116;2022-09-01T10:49:55;22.50;92.10
65536;DHT22;52145;49.342;9.116;2022-09-01T10:52:06;23.00;91.90
65536;DHT22;52145;49.342;9.116;2022-09-01T10:57:11;24.60;90.60
65536;DHT22;52145;49.342;9.116;2022-09-01T10:59:46;24.80;89.00
65536;DHT22;52145;49.342;9.116;2022-09-01T11:02:15;24.50;89.30
65536;DHT22;52145;49.342;9.116;2022-09-01T11:12:58;25.10;88.70
65536;DHT22;52145;49.342;9.116;2022-09-01T11:15:37;25.60;87.00
65536;DHT22;52145;49.342;9.116;2022-09-01T11:18:16;27.20;84.70
65536;DHT22;52145;49.342;9.116;2022-09-01T11:20:47;25.10;85.90
65536;DHT22;52145;49.342;9.116;2022-09-01T11:23:28;24.00;88.40
65536;DHT22;52145;49.342;9.116;2022-09-01T11:26:43;24.40;87.60
65536;DHT22;52145;49.342;9.116;2022-09-01T11:28:45;25.00;86.90
65536;DHT22;52145;49.342;9.116;2022-09-01T11:31:25;25.80;85.40
65536;DHT22;52145;49.342;9.116;2022-09-01T11:34:12;25.40;85.30
65536;DHT22;52145;49.342;9.116;2022-09-01T11:44:14;25.20;85.80
65536;DHT22;52145;49.342;9.116;2022-09-01T11:46:41;25.70;84.40
65536;DHT22;52145;49.342;9.116;2022-09-01T11:49:36;25.50;83.40
65536;DHT22;52145;49.342;9.116;2022-09-01T11:52:03;25.80;83.80
65536;DHT22;52145;49.342;9.116;2022-09-01T11:54:38;26.50;82.50
65536;DHT22;52145;49.342;9.116;2022-09-01T11:57:24;25.60;83.60
65536;DHT22;52145;49.342;9.116;2022-09-01T11:59:50;25.00;85.20
65536;DHT22;52145;49.342;9.116;2022-09-01T12:02:28;25.70;84.70
65536;DHT22;52145;49.342;9.116;2022-09-01T12:04:56;25.30;85.30
65536;DHT22;52145;49.342;9.116;2022-09-01T12:11:53;24.60;86.10
65536;DHT22;52145;49.342;9.116;2022-09-01T12:14:21;25.00;85.50
65536;DHT22;52145;49.342;9.116;2022-09-01T12:17:19;24.90;85.50
65536;DHT22;52145;49.342;9.116;2022-09-01T12:19:45;25.80;85.00
65536;DHT22;52145;49.342;9.116;2022-09-01T12:22:16;25.80;84.90
65536;DHT22;52145;49.342;9.116;2022-09-01T12:26:50;26.60;82.70
65536;DHT22;52145;49.342;9.116;2022-09-01T12:29:16;26.00;82.40
65536;DHT22;52145;49.342;9.116;2022-09-01T12:31:44;25.10;83.60
65536;DHT22;52145;49.342;9.116;2022-09-01T12:34:37;24.80;84.70
65536;DHT22;52145;49.342;9.116;2022-09-01T12:37:44;24.90;85.30
65536;DHT22;52145;49.342;9.116;2022-09-01T12:40:26;25.50;84.20
65536;DHT22;52145;49.342;9.116;2022-09-01T12:42:55;27.00;81.40
65536;DHT22;52145;49.342;9.116;2022-09-01T12:48:01;28.90;78.40
65536;DHT22;52145;49.342;9.116;2022-09-01T12:52:56;30.00;76.20
65536;DHT22;52145;49.342;9.116;2022-09-01T12:55:25;30.40;74.30
65536;DHT22;52145;49.342;9.116;2022-09-01T12:57:54;30.30;74.10
65536;DHT22;52145;49.342;9.116;2022-09-01T13:00:31;30.30;74.60
65536;DHT22;52145;49.342;9.116;2022-09-01T13:03:15;30.80;73.60
65536;DHT22;52145;49.342;9.116;2022-09-01T13:05:44;32.30;72.20
65536;DHT22;52145;49.342;9.116;2022-09-01T13:08:33;29.60;73.10
65536;DHT22;52145;49.342;9.116;2022-09-01T13:11:06;31.80;71.80
65536;DHT22;52145;49.342;9.116;2022-09-01T13:13:32;32.40;72.00
65536;DHT22;52145;49.342;9.116;2022-09-01T13:16:01;32.50;70.60
65536;DHT22;52145;49.342;9.116;2022-09-01T13:18:29;32.60;68.90
65536;DHT22;52145;49.342;9.116;2022-09-01T13:20:56;32.10;68.60
65536;DHT22;52145;49.342;9.116;2022-09-01T13:23:22;31.90;70.50
65536;DHT22;52145;49.342;9.116;2022-09-01T13:25:48;31.80;69.20
65536;DHT22;52145;49.342;9.116;2022-09-01T13:28:15;30.30;69.40
65536;DHT22;52145;49.342;9.116;2022-09-01T13:30:43;27.70;73.00
65536;DHT22;52145;49.342;9.116;2022-09-01T13:33:09;27.00;73.90
65536;DHT22;52145;49.342;9.116;2022-09-01T13:35:37;26.40;75.00
65536;DHT22;52145;49.342;9.116;2022-09-01T13:38:03;26.20;76.10
65536;DHT22;52145;49.342;9.116;2022-09-01T13:40:28;26.00;76.80
65536;DHT22;52145;49.342;9.116;2022-09-01T13:42:54;26.40;77.70
65536;DHT22;52145;49.342;9.116;2022-09-01T13:45:22;26.20;77.00
65536;DHT22;52145;49.342;9.116;2022-09-01T13:47:49;26.10;76.90
65536;DHT22;52145;49.342;9.116;2022-09-01T13:50:17;26.40;77.10
65536;DHT22;52145;49.342;9.116;2022-09-01T13:52:49;26.50;76.10
65536;DHT22;52145;49.342;9.116;2022-09-01T13:55:18;26.20;77.10
65536;DHT22;52145;49.342;9.116;2022-09-01T13:57:44;25.90;77.70
65536;DHT22;52145;49.342;9.116;2022-09-01T14:00:11;26.20;78.30
65536;DHT22;52145;49.342;9.116;2022-09-01T14:02:39;25.50;78.10
65536;DHT22;52145;49.342;9.116;2022-09-01T14:05:05;25.70;78.80
65536;DHT22;52145;49.342;9.116;2022-09-01T14:07:31;25.20;78.80
65536;DHT22;52145;49.342;9.116;2022-09-01T14:09:56;24.80;79.80
65536;DHT22;52145;49.342;9.116;2022-09-01T14:12:22;24.90;80.30
65536;DHT22;52145;49.342;9.116;2022-09-01T14:14:48;24.90;79.90
65536;DHT22;52145;49.342;9.116;2022-09-01T14:17:14;24.40;80.70
65536;DHT22;52145;49.342;9.116;2022-09-01T14:19:40;24.50;80.30
65536;DHT22;52145;49.342;9.116;2022-09-01T14:22:06;24.60;80.10
65536;DHT22;52145;49.342;9.116;2022-09-01T14:24:35;24.40;80.00
65536;DHT22;52145;49.342;9.116;2022-09-01T14:27:02;24.40;80.00
65536;DHT22;52145;49.342;9.116;2022-09-01T14:29:27;24.40;79.60
65536;DHT22;52145;49.342;9.116;2022-09-01T14:31:54;24.30;80.30
65536;DHT22;52145;49.342;9.116;2022-09-01T14:34:22;24.40;80.00
65536;DHT22;52145;49.342;9.116;2022-09-01T14:36:49;24.50;80.00
65536;DHT22;52145;49.342;9.116;2022-09-01T14:39:17;24.80;80.00
65536;DHT22;52145;49.342;9.116;2022-09-01T14:41:42;24.80;79.80
65536;DHT22;52145;49.342;9.116;2022-09-01T14:44:08;24.80;79.10
65536;DHT22;52145;49.342;9.116;2022-09-01T14:46:33;24.70;79.90
65536;DHT22;52145;49.342;9.116;2022-09-01T14:49:01;24.70;79.00
65536;DHT22;52145;49.342;9.116;2022-09-01T14:51:29;24.70;79.50
65536;DHT22;52145;49.342;9.116;2022-09-01T14:53:55;24.60;79.00
65536;DHT22;52145;49.342;9.116;2022-09-01T14:56:22;24.80;79.50
65536;DHT22;52145;49.342;9.116;2022-09-01T14:58:48;24.70;79.00
65536;DHT22;52145;49.342;9.116;2022-09-01T15:01:16;24.80;79.70
65536;DHT22;52145;49.342;9.116;2022-09-01T15:03:42;24.80;79.20
65536;DHT22;52145;49.342;9.116;2022-09-01T15:06:11;25.10;79.10
65536;DHT22;52145;49.342;9.116;2022-09-01T15:08:37;24.80;79.00
65536;DHT22;52145;49.342;9.116;2022-09-01T15:11:08;24.90;80.00
65536;DHT22;52145;49.342;9.116;2022-09-01T15:13:33;24.80;79.80
65536;DHT22;52145;49.342;9.116;2022-09-01T15:15:59;25.10;78.70
65536;DHT22;52145;49.342;9.116;2022-09-01T15:18:25;26.60;75.60
65536;DHT22;52145;49.342;9.116;2022-09-01T15:20:50;28.90;72.30
65536;DHT22;52145;49.342;9.116;2022-09-01T15:23:21;29.90;71.00
65536;DHT22;52145;49.342;9.116;2022-09-01T15:25:49;28.20;71.50
65536;DHT22;52145;49.342;9.116;2022-09-01T15:28:15;27.30;72.60
65536;DHT22;52145;49.342;9.116;2022-09-01T15:30:41;26.80;74.00
65536;DHT22;52145;49.342;9.116;2022-09-01T15:33:10;28.10;71.90
65536;DHT22;52145;49.342;9.116;2022-09-01T15:35:36;27.60;71.70
65536;DHT22;52145;49.342;9.116;2022-09-01T15:38:02;26.80;72.70
65536;DHT22;52145;49.342;9.116;2022-09-01T15:40:28;25.90;73.80
65536;DHT22;52145;49.342;9.116;2022-09-01T15:42:54;25.70;75.00
65536;DHT22;52145;49.342;9.116;2022-09-01T15:45:22;25.40;75.70
65536;DHT22;52145;49.342;9.116;2022-09-01T15:47:48;25.50;75.80
65536;DHT22;52145;49.342;9.116;2022-09-01T15:50:16;25.80;75.80
65536;DHT22;52145;49.342;9.116;2022-09-01T15:52:47;25.50;76.20
65536;DHT22;52145;49.342;9.116;2022-09-01T15:55:15;25.60;76.60
65536;DHT22;52145;49.342;9.116;2022-09-01T15:57:40;28.50;72.60
65536;DHT22;52145;49.342;9.116;2022-09-01T16:00:06;30.30;70.70
65536;DHT22;52145;49.342;9.116;2022-09-01T16:02:32;29.00;70.30
65536;DHT22;52145;49.342;9.116;2022-09-01T16:04:57;26.80;73.10
65536;DHT22;52145;49.342;9.116;2022-09-01T16:07:23;25.50;75.70
65536;DHT22;52145;49.342;9.116;2022-09-01T16:09:49;25.10;76.70
65536;DHT22;52145;49.342;9.116;2022-09-01T16:12:16;25.40;76.80
65536;DHT22;52145;49.342;9.116;2022-09-01T16:14:44;25.70;76.70
65536;DHT22;52145;49.342;9.116;2022-09-01T16:17:19;27.70;73.70
65536;DHT22;52145;49.342;9.116;2022-09-01T16:19:53;27.30;71.80
65536;DHT22;52145;49.342;9.116;2022-09-01T16:22:30;26.90;73.50
65536;DHT22;52145;49.342;9.116;2022-09-01T16:25:00;25.50;75.00
65536;DHT22;52145;49.342;9.116;2022-09-01T16:27:33;26.00;74.60
65536;DHT22;52145;49.342;9.116;2022-09-01T16:30:07;26.10;74.70
65536;DHT22;52145;49.342;9.116;2022-09-01T16:32:35;26.00;74.90
65536;DHT22;52145;49.342;9.116;2022-09-01T16:35:01;26.70;74.00
65536;DHT22;52145;49.342;9.116;2022-09-01T16:48:31;24.50;77.70